Kezdőlap
METAR-TAF:

METAR-TAF

Repülőterek :

Malabo, Egyenlítői-Guinea

földrajzi szélesség: 03-45-18N, földrajzi hosszúság: 08-42-31E, magasság: 23 m

METAR: hiányzik

Idő: 15:53 (14:53 UTC)

Előrejelzés

A jelentés 3 órával és 53 perccel ezelõtt készült, 11:00 UTC
Az előrejelzés 23-én 12 óra UTC és 24-én 18 óra UTC között érvényes
Nyugat-délnyugati szél 8 kt
Látótávolság 10 km, vagy több
Szórványos felhőzet 1200 lábon
Kevés felhő 2000 lábon, Cumulonimbus.
23-én 15 óra UTC és 23-én 20 óra UTC között ideiglenes
Látótávolság: 4000 m
Szakadozott felhőzet 800 lábon
Kevés felhő 1800 lábon, Cumulonimbus.
esõ, szitálás
24-én 00 óra UTC és 24-én 08 óra UTC között ideiglenes
Látótávolság: 4000 m
Szakadozott felhőzet 800 lábon
Kevés felhő 1800 lábon, Cumulonimbus.
zivatar, esõ

TAF: FGSL 231100Z 2312/2418 24008KT 9999 SCT012 FEW020CB TEMPO 2315/2320 4000 RADZ BKN008 FEW018CB TEMPO 2400/2408 4000 TSRA BKN008 FEW018CB

Meteorológiai megfigyelések és előrejelzések több, mint 4000 repülőtéren (METAR és TAF jelentéseket).

A térképen piros és sárga pontok jelzik az elérhető meteorológiai állomásokat.

Mozgassa az egeret a pont fölött, hogy megjelenjen az állomás neve.

Azután kattintson az időjárási megfigyelések és előrejelzések megtekintéséhez.

A térkép megváltoztatása: kattintson a fekete keresztel jelölt zöld gombra ráközelítéshez, a vonallal jelölt zöld gombra távolításhoz, vagy a zöld nyilakra a szomszédos térképek eléréséhez.


METAR-TAF: